Estación Meteorológica Peña el Pijo (Robertgarden) [ 12/17/17 01:29:06 CET ]

Fecha Hora Presion(HPa) Temp (°C) Humedad % Rocio (°C) Viento ( m/s) Direccion Lluvia 1Hora(mm) Lluvia 24H(mm) LLuvia Total(mm)
2017-Oct-16 01:01:50 1018.500 8.1 76 4.1         1457.65
2017-Oct-16 02:01:41 1018.300 7.5 79 4.1         1457.65
2017-Oct-16 03:05:09 1018.000 9.2 79 5.7         1457.65
2017-Oct-16 04:01:47 1017.500 10.1 79 6.6         1457.65
2017-Oct-16 05:01:56 1017.200 9.9 82 6.9         1457.65
2017-Oct-16 06:01:43 1017.100 9.9 83 7.1         1457.65
2017-Oct-16 07:01:07 1017.100 9.7 84 7.1         1457.65
2017-Oct-16 08:01:28 1017.800 9.1 85 6.7         1457.65
2017-Oct-16 09:01:42 1018.100 8.8 85 6.4         1457.65
2017-Oct-16 10:01:45 1018.700 9.2 86 7.0         1457.65
2017-Oct-16 11:02:03 1018.500 15.3 77 11.3         1457.65
2017-Oct-16 12:02:04 1018.100 20.4 54 10.8         1457.65
2017-Oct-16 13:01:48 1017.500 22.6 43 9.3         1457.65
2017-Oct-16 14:01:44 1016.700 24.9 35 8.3         1457.65
2017-Oct-16 15:01:44 1016.200 27.4 30 8.3         1457.65
2017-Oct-16 16:01:49 1015.700 27.0 35 10.1         1457.65
2017-Oct-16 17:01:52 1015.500 26.0 35 9.2         1457.65
2017-Oct-16 18:01:55 1015.500 23.8 38 8.6         1457.65
2017-Oct-16 19:01:52 1015.900 20.1 43 7.1         1457.65
2017-Oct-16 20:01:43 1016.400 16.9 51 6.7         1457.65
2017-Oct-16 21:01:56 1016.600 15.2 59 7.2         1457.65
2017-Oct-16 22:01:44 1017.100 13.4 63 6.5         1457.65
2017-Oct-16 23:01:48 1017.400 10.6 69 5.2         1457.65

Temperatura Máxima:27°    Temperatura Mínima:
Presión Máxima:1018.700 Hpa    Presión Mínima:1015.500 Hpa


Volver